Notre-Dame-du-Portage, Canada
Current Conditions -  °F | °C
As of 2:20 PM on Thursday 18 Dec 2014 (Local Time) from KFVE Reporting Station
Light Snow Light Snow  
Wind Chill: 10°   Ceiling: 4000
Heat Index: 25°   Visibility: 3mi
Dew Point: 22°   Wind: 24mph
Humidity: 88%   Direction: 340°NNW
Pressure: 29.55"   Gusts: 32mph
Location:  47.76°N, 69.61°W
Report Text: KFVE 181920Z AUTO 34021G28KT 3SM -SN BR FEW011 BKN040 OVC049 M04/M06 A2955 RMK AO2 PK WND 34030/1858 P0000 T10391056
Loading
Personal Weather Stations






























Interactive Weather Map New forecast layout! Learn more

10-Day Weather Forecast

Advertisements
Track Severe Weather on mobile